Historyczne dane pomiarowe

Dodano dane terminowe – wersja testowa.

Dane z okresu 1951-2019

Wersja bazy: 1.34 [2019-03-16, lista zmian], aktualizacja planowana na 2019-04-15

Dane meteo z obszaru Polski uzyskane na podstawie danych udostępnionych przez Instytut Meteorologii i Gospodarki Wodnej – Państwowy Instytut Badawczy.

 

Wybierz Datę:    

       

TemperaturaWilgotnośćWiatrCiśnienieOpadyŚniegCzas trwania zjawisk
 Stacja t tx tn tng RH VA  wxwx mslp ppp RRR   cm mm wxwxwxwxwxwxwx
1999-08-14 15.4 22.4 8.7 4.2-- 2.3 2.0---- 0.0------------
1999-08-13 16.0 20.3 13.2 10.6-- 2.3 2.7---- 0.0------------
1999-08-12 15.8 20.2 11.3 8.1-- 5.7 2.3---- 0.0------------
1999-08-11 19.5 24.0 15.5 12.8-- 4.0 3.3---- 0.0------------
1999-08-10 20.1 24.9 15.6 11.3-- 6.3 1.7---- 1.6------------
1999-08-09 22.1 28.7 17.7 14.2-- 5.0 2.3---- 0.6------------
1999-08-08 23.3 29.2 18.9 16.7-- 5.3 1.0---- 0.0------------
1999-08-07 21.5 29.9 12.5 12.0-- 2.3 1.0---- 2.4------------
1999-08-06 21.5 27.4 15.6 12.3-- 4.7 1.7---- 0.0------------
1999-08-05 18.9 28.4 10.1 6.6-- 4.3 0.3---- 0.0------------
1999-08-04 18.6 27.2 8.7 4.7-- 1.7 0.3---- 0.0------------
1999-08-03 18.2 27.3 8.9 5.7-- 3.0 0.7---- 0.0------------
1999-08-02 18.9 26.7 10.2 5.8-- 3.0 1.3---- 0.0------------
1999-08-01 20.1 27.5 13.0 8.7-- 4.3 3.3---- 0.0------------
1999-07-31 19.6 27.5 10.8 6.4-- 2.7 1.7---- 0.0------------
1999-07-30 18.9 26.6 10.5 6.6-- 2.0 1.7---- 0.0------------
1999-07-29 18.8 25.8 10.8 6.9-- 2.3 1.7---- 0.0------------
1999-07-28 18.3 27.9 9.8 6.6-- 3.7 3.0---- 0.0------------
1999-07-27 18.5 23.6 14.3 13.7-- 3.3 2.7---- 0.0------------
1999-07-26 20.9 29.0 12.3 9.9-- 3.7 1.7---- 0.0------------
1999-07-25 18.9 26.0 9.3 6.6-- 3.0 1.3---- 0.0------------
1999-07-24 18.3 23.1 14.0 12.6-- 3.3 5.7---- 0.0------------
1999-07-23 17.0 22.8 12.0 10.5-- 7.7 0.3---- 0.0------------
1999-07-22 18.9 23.2 16.4 13.3-- 6.3 1.7---- 0.0------------
1999-07-21 22.8 29.3 17.3 13.8-- 4.3 2.3---- 0.0------------
1999-07-20 23.0 31.1 13.4 11.1-- 0.7 0.3---- 0.0------------
1999-07-19 23.4 30.1 17.1 11.1-- 5.7 0.7---- 0.0------------
1999-07-18 20.1 27.6 10.7 8.8-- 2.7 1.0---- 0.0------------
1999-07-17 18.8 25.3 11.4 8.6-- 3.0 0.3---- 0.0------------
1999-07-16 17.1 22.0 12.2 10.1-- 4.3 1.0---- 0.0------------
1999-07-15 17.3 21.4 14.8 14.8-- 4.3 3.3---- 0.0------------
1999-07-14 20.7 27.5 17.3 10.6-- 4.7 2.3---- 7.3------------
1999-07-13 22.1 27.8 17.8 15.9-- 5.7 2.0---- 0.4------------
1999-07-12 22.0 28.8 15.4 13.3-- 3.7 2.0---- 0.0------------
1999-07-11 20.3 26.7 12.1 9.1-- 5.0 3.7---- 0.0------------
1999-07-10 20.3 25.1 15.0 13.1-- 0.7 3.7---- 0.0------------
1999-07-09 19.3 24.6 15.3 14.7-- 5.7 4.0---- 0.0------------
1999-07-08 16.7 19.0 15.6 15.3-- 8.0 2.3---- 10.1------------
1999-07-07 19.2 20.6 18.0 17.1-- 8.0 2.3---- 1.5------------
1999-07-06 24.4 31.1 20.6 16.3-- 3.7 3.0---- 26.5------------
1999-07-05 25.6 32.4 16.3 14.6-- 1.3 1.3---- 0.0------------
1999-07-04 23.8 31.1 14.9 11.8-- 5.0 2.7---- 0.0------------
1999-07-03 21.2 26.2 17.4 12.3-- 3.7 0.7---- 0.0------------
1999-07-02 19.0 23.8 15.0 11.9-- 5.3 2.3---- 0.0------------
1999-07-01 19.2 25.4 12.8 10.6-- 4.7 1.0---- 0.0------------
1999-06-30 19.4 25.0 11.2 9.0-- 4.7 0.7---- 0.0------------
1999-06-29 19.2 23.3 14.5 13.1-- 3.7 0.7---- 0.0------------
1999-06-28 20.4 28.3 14.4 10.9-- 4.0 1.3---- 6.8------------
1999-06-27 20.6 26.8 13.5 10.6-- 2.7 2.7---- 0.0------------
1999-06-26 15.3 21.1 8.0 4.2-- 3.7 1.7---- 0.0------------
1999-06-25 12.9 18.2 6.2 3.2-- 5.3 1.7---- 0.2------------
1999-06-24 12.5 17.7 4.5 1.8-- 3.7 2.3---- 0.0------------
1999-06-23 11.0 14.0 8.2 7.7-- 7.7 2.3---- 1.0------------
1999-06-22 10.8 15.3 9.0 8.6-- 8.0 9.0---- 63.3------------
1999-06-21 17.8 22.2 15.3 11.5-- 7.7 5.0---- 16.0------------
1999-06-20 17.9 21.7 12.4 9.7-- 5.3 1.0---- 2.2------------
1999-06-19 17.5 20.4 15.0 14.0-- 8.0 2.0---- 0.0------------
1999-06-18 17.8 19.5 16.1 15.2-- 8.0 1.3---- 4.4------------
1999-06-17 19.0 22.4 16.3 14.7-- 6.7 2.3---- 0.0------------
1999-06-16 16.9 18.4 15.7 15.7-- 8.0 1.7---- 0.0------------
286.9 ms

 

Źródłem pochodzenia danych jest Instytut Meteorologii i Gospodarki Wodnej – Państwowy Instytut Badawczy. Dane Instytutu Meteorologii i Gospodarki Wodnej – Państwowego Instytutu Badawczego zostały przetworzone.

Dane źródłowe można odnaleźć na stronie https://dane.imgw.pl